createdAt,value
2017-03-08T00:00:42.210Z,0
2017-03-08T00:01:41.830Z,0
2017-03-08T00:02:41.876Z,0
2017-03-08T00:03:41.897Z,0
2017-03-08T00:04:42.978Z,0
2017-03-08T00:05:42.368Z,0
2017-03-08T00:06:42.367Z,0
2017-03-08T00:07:42.393Z,0
2017-03-08T00:08:42.429Z,0
2017-03-08T00:09:42.705Z,0
2017-03-08T00:10:42.462Z,0
2017-03-08T00:11:42.887Z,0
2017-03-08T00:12:42.148Z,0
2017-03-08T00:13:42.164Z,0
2017-03-08T00:14:43.225Z,0
2017-03-08T00:15:41.826Z,0
2017-03-08T00:16:42.647Z,0
2017-03-08T00:17:42.264Z,0
2017-03-08T00:18:42.689Z,0
2017-03-08T00:19:42.982Z,0
2017-03-08T00:20:43.151Z,0
2017-03-08T00:21:42.771Z,0
2017-03-08T00:22:42.407Z,0
2017-03-08T00:23:42.832Z,0
2017-03-08T00:24:43.494Z,0
2017-03-08T00:25:43.278Z,0
2017-03-08T00:26:43.315Z,0
2017-03-08T00:27:42.943Z,0
2017-03-08T00:28:42.172Z,0
2017-03-08T00:29:43.254Z,0
2017-03-08T00:30:43.402Z,0
2017-03-08T00:31:42.668Z,0
2017-03-08T00:32:42.278Z,0
2017-03-08T00:33:43.137Z,0
2017-03-08T00:34:43.385Z,0
2017-03-08T00:35:43.562Z,0
2017-03-08T00:36:42.791Z,0
2017-03-08T00:37:42.808Z,0
2017-03-08T00:38:43.235Z,0
2017-03-08T00:39:43.513Z,0
2017-03-08T00:40:42.889Z,0
2017-03-08T00:41:42.941Z,0
2017-03-08T00:42:43.735Z,0
2017-03-08T00:43:43.398Z,0
2017-03-08T00:44:43.681Z,0
2017-03-08T00:45:43.805Z,0
2017-03-08T00:46:43.062Z,0
2017-03-08T00:47:43.095Z,0
2017-03-08T00:48:43.499Z,0
2017-03-08T00:49:43.406Z,0
2017-03-08T00:50:42.772Z,0
2017-03-08T00:51:43.194Z,0
2017-03-08T00:52:43.203Z,0
2017-03-08T00:53:43.642Z,0
2017-03-08T00:54:43.524Z,0
2017-03-08T00:55:43.304Z,0
2017-03-08T00:56:43.718Z,0
2017-03-08T00:57:44.159Z,0
2017-03-08T00:58:44.164Z,0
2017-03-08T00:59:44.040Z,0
2017-03-08T01:00:43.829Z,0
2017-03-08T01:01:43.449Z,0
2017-03-08T01:02:44.275Z,0
2017-03-08T01:03:43.910Z,0
2017-03-08T01:04:44.188Z,0
2017-03-08T01:05:43.956Z,0
2017-03-08T01:06:44.373Z,0
2017-03-08T01:07:43.615Z,0
2017-03-08T01:08:43.271Z,0
2017-03-08T01:09:43.924Z,0
2017-03-08T01:10:44.098Z,0
2017-03-08T01:11:44.118Z,0
2017-03-08T01:12:44.555Z,0
2017-03-08T01:13:44.578Z,0
2017-03-08T01:14:44.451Z,0
2017-03-08T01:15:44.633Z,0
2017-03-08T01:16:44.244Z,0
2017-03-08T01:17:44.686Z,0
2017-03-08T01:18:43.934Z,0
2017-03-08T01:19:44.622Z,0
2017-03-08T01:20:43.976Z,0
2017-03-08T01:21:43.998Z,0
2017-03-08T01:22:44.413Z,0
2017-03-08T01:23:44.043Z,0
2017-03-08T01:24:44.091Z,0
2017-03-08T01:25:44.496Z,0
2017-03-08T01:26:44.133Z,0
2017-03-08T01:27:44.564Z,0
2017-03-08T01:28:44.590Z,0
2017-03-08T01:29:44.620Z,0
2017-03-08T01:30:45.050Z,0
2017-03-08T01:31:44.246Z,0
2017-03-08T01:32:44.685Z,0
2017-03-08T01:33:44.698Z,0
2017-03-08T01:34:44.331Z,0
2017-03-08T01:35:45.011Z,0
2017-03-08T01:36:44.803Z,0
2017-03-08T01:37:44.013Z,0
2017-03-08T01:38:45.257Z,0
2017-03-08T01:39:45.287Z,0
2017-03-08T01:40:45.159Z,0
2017-03-08T01:41:44.933Z,0
2017-03-08T01:42:45.352Z,0
2017-03-08T01:43:44.581Z,0
2017-03-08T01:44:45.399Z,0
2017-03-08T01:45:45.300Z,0
2017-03-08T01:46:45.042Z,0
2017-03-08T01:47:44.677Z,0
2017-03-08T01:48:45.105Z,0
2017-03-08T01:49:44.346Z,0
2017-03-08T01:50:45.803Z,0
2017-03-08T01:51:45.184Z,0
2017-03-08T01:52:44.421Z,0
2017-03-08T01:53:44.853Z,0
2017-03-08T01:54:44.879Z,0
2017-03-08T01:55:45.154Z,0
2017-03-08T01:56:44.920Z,0
2017-03-08T01:57:44.965Z,0
2017-03-08T01:58:45.373Z,0
2017-03-08T01:59:45.009Z,0
2017-03-08T02:00:45.686Z,0
2017-03-08T02:01:45.444Z,0
2017-03-08T02:02:45.472Z,0
2017-03-08T02:03:45.112Z,0
2017-03-08T02:04:45.942Z,0
2017-03-08T02:05:45.810Z,0
2017-03-08T02:06:45.211Z,0
2017-03-08T02:07:45.620Z,0
2017-03-08T02:08:46.044Z,0
2017-03-08T02:09:45.279Z,0
2017-03-08T02:10:45.146Z,0
2017-03-08T02:11:45.719Z,0
2017-03-08T02:12:45.364Z,0
2017-03-08T02:13:44.973Z,0
2017-03-08T02:14:45.815Z,0
2017-03-08T02:15:46.479Z,0
2017-03-08T02:16:45.847Z,0
2017-03-08T02:17:46.267Z,0
2017-03-08T02:18:45.908Z,0
2017-03-08T02:19:46.329Z,0
2017-03-08T02:20:46.214Z,0
2017-03-08T02:21:45.575Z,0
2017-03-08T02:22:46.003Z,0
2017-03-08T02:23:46.051Z,0
2017-03-08T02:24:46.085Z,0
2017-03-08T02:25:45.958Z,0
2017-03-08T02:26:46.518Z,0
2017-03-08T02:27:46.160Z,0
2017-03-08T02:28:46.180Z,0
2017-03-08T02:29:46.215Z,0
2017-03-08T02:30:46.096Z,0
2017-03-08T02:31:46.643Z,0
2017-03-08T02:32:46.672Z,0
2017-03-08T02:33:46.715Z,0
2017-03-08T02:34:46.721Z,0
2017-03-08T02:35:46.997Z,0
2017-03-08T02:36:46.791Z,0
2017-03-08T02:37:46.796Z,0
2017-03-08T02:38:46.428Z,0
2017-03-08T02:39:46.055Z,0
2017-03-08T02:40:46.749Z,0
2017-03-08T02:41:46.922Z,0
2017-03-08T02:42:45.779Z,0
2017-03-08T02:43:46.172Z,0
2017-03-08T02:44:47.012Z,0
2017-03-08T02:45:47.265Z,0
2017-03-08T02:46:47.045Z,0
2017-03-08T02:47:47.063Z,0
2017-03-08T02:48:46.300Z,0
2017-03-08T02:49:46.327Z,0
2017-03-08T02:50:47.405Z,0
2017-03-08T02:51:46.774Z,0
2017-03-08T02:52:46.798Z,0
2017-03-08T02:53:46.836Z,0
2017-03-08T02:54:46.868Z,0
2017-03-08T02:55:46.736Z,0
2017-03-08T02:56:46.905Z,0
2017-03-08T02:57:47.334Z,0
2017-03-08T02:58:46.626Z,0
2017-03-08T02:59:46.980Z,0
2017-03-08T03:00:47.261Z,0
2017-03-08T03:01:47.437Z,0
2017-03-08T03:02:46.683Z,0
2017-03-08T03:03:47.087Z,0
2017-03-08T03:04:47.524Z,0
2017-03-08T03:05:47.408Z,0
2017-03-08T03:06:47.177Z,0
2017-03-08T03:07:46.802Z,0
2017-03-08T03:08:47.242Z,0
2017-03-08T03:09:46.851Z,0
2017-03-08T03:10:47.555Z,0
2017-03-08T03:11:47.308Z,0
2017-03-08T03:12:47.333Z,0
2017-03-08T03:13:47.367Z,0
2017-03-08T03:14:47.783Z,0
2017-03-08T03:15:47.662Z,0
2017-03-08T03:16:47.445Z,0
2017-03-08T03:17:47.477Z,0
2017-03-08T03:18:46.694Z,0
2017-03-08T03:19:46.727Z,0
2017-03-08T03:20:47.816Z,0
2017-03-08T03:21:47.193Z,0
2017-03-08T03:22:47.601Z,0
2017-03-08T03:23:48.010Z,0
2017-03-08T03:24:47.663Z,0
2017-03-08T03:25:47.956Z,0
2017-03-08T03:26:47.704Z,0
2017-03-08T03:27:47.351Z,0
2017-03-08T03:28:47.756Z,0
2017-03-08T03:29:47.811Z,0
2017-03-08T03:30:48.467Z,0
2017-03-08T03:31:47.440Z,0
2017-03-08T03:32:47.861Z,0
2017-03-08T03:33:47.889Z,0
2017-03-08T03:34:47.506Z,0
2017-03-08T03:35:47.555Z,0
2017-03-08T03:36:48.000Z,0
2017-03-08T03:37:47.993Z,0
2017-03-08T03:38:48.417Z,0
2017-03-08T03:39:47.646Z,0
2017-03-08T03:40:48.087Z,0
2017-03-08T03:41:48.111Z,0
2017-03-08T03:42:48.152Z,0
2017-03-08T03:43:48.547Z,0
2017-03-08T03:44:48.574Z,0
2017-03-08T03:45:48.593Z,0
2017-03-08T03:46:48.243Z,0
2017-03-08T03:47:47.860Z,0
2017-03-08T03:48:47.879Z,0
2017-03-08T03:49:47.914Z,0
2017-03-08T03:50:48.339Z,0
2017-03-08T03:51:48.371Z,0
2017-03-08T03:52:47.984Z,0
2017-03-08T03:53:48.413Z,0
2017-03-08T03:54:48.842Z,0
2017-03-08T03:55:48.076Z,0
2017-03-08T03:56:49.207Z,0
2017-03-08T03:57:48.910Z,0
2017-03-08T03:58:48.965Z,0
2017-03-08T03:59:48.985Z,0
2017-03-08T04:00:48.198Z,0
2017-03-08T04:01:48.479Z,0
2017-03-08T04:02:48.660Z,0
2017-03-08T04:03:48.292Z,0
2017-03-08T04:04:49.109Z,0
2017-03-08T04:05:48.726Z,0
2017-03-08T04:06:49.039Z,0
2017-03-08T04:07:48.792Z,0
2017-03-08T04:08:49.201Z,0
2017-03-08T04:09:48.845Z,0
2017-03-08T04:10:48.876Z,0
2017-03-08T04:11:49.531Z,0
2017-03-08T04:12:49.299Z,0
2017-03-08T04:13:48.951Z,0
2017-03-08T04:14:48.969Z,0
2017-03-08T04:15:48.990Z,0
2017-03-08T04:16:49.278Z,0
2017-03-08T04:17:48.643Z,0
2017-03-08T04:18:48.680Z,0
2017-03-08T04:19:49.125Z,0
2017-03-08T04:20:49.145Z,0
2017-03-08T04:21:49.406Z,0
2017-03-08T04:22:48.787Z,0
2017-03-08T04:23:49.596Z,0
2017-03-08T04:24:49.629Z,0
2017-03-08T04:25:49.661Z,0
2017-03-08T04:26:49.943Z,0
2017-03-08T04:27:49.302Z,0
2017-03-08T04:28:49.735Z,0
2017-03-08T04:29:49.363Z,0
2017-03-08T04:30:48.600Z,0
2017-03-08T04:31:49.282Z,0
2017-03-08T04:32:49.426Z,0
2017-03-08T04:33:49.076Z,0
2017-03-08T04:34:49.488Z,0
2017-03-08T04:35:49.142Z,0
2017-03-08T04:36:49.798Z,0
2017-03-08T04:37:49.566Z,0
2017-03-08T04:38:49.623Z,0
2017-03-08T04:39:49.220Z,0
2017-03-08T04:40:50.049Z,0
2017-03-08T04:41:49.926Z,0
2017-03-08T04:42:49.307Z,0
2017-03-08T04:43:48.930Z,0
2017-03-08T04:44:49.755Z,0
2017-03-08T04:45:49.777Z,0
2017-03-08T04:46:49.277Z,0
2017-03-08T04:47:49.446Z,0
2017-03-08T04:48:50.038Z,0
2017-03-08T04:49:49.507Z,0
2017-03-08T04:50:50.304Z,0
2017-03-08T04:51:50.573Z,0
2017-03-08T04:52:49.570Z,0
2017-03-08T04:53:50.386Z,0
2017-03-08T04:54:50.431Z,0
2017-03-08T04:55:49.652Z,0
2017-03-08T04:56:50.312Z,0
2017-03-08T04:57:50.105Z,0
2017-03-08T04:58:50.130Z,0
2017-03-08T04:59:50.162Z,0
2017-03-08T05:00:49.780Z,0
2017-03-08T05:01:50.059Z,0
2017-03-08T05:02:50.237Z,0
2017-03-08T05:03:49.862Z,0
2017-03-08T05:04:50.270Z,0
2017-03-08T05:05:50.727Z,0
2017-03-08T05:06:50.968Z,0
2017-03-08T05:07:50.758Z,0
2017-03-08T05:08:50.378Z,0
2017-03-08T05:09:50.010Z,0
2017-03-08T05:10:50.835Z,0
2017-03-08T05:11:50.456Z,0
2017-03-08T05:12:50.509Z,0
2017-03-08T05:13:50.509Z,0
2017-03-08T05:14:50.934Z,0
2017-03-08T05:15:50.570Z,0
2017-03-08T05:16:49.820Z,0
2017-03-08T05:17:50.925Z,0
2017-03-08T05:18:51.034Z,0
2017-03-08T05:19:50.286Z,0
2017-03-08T05:20:51.099Z,0
2017-03-08T05:21:51.143Z,0
2017-03-08T05:22:51.000Z,0
2017-03-08T05:23:50.368Z,0
2017-03-08T05:24:50.790Z,0
2017-03-08T05:25:50.442Z,0
2017-03-08T05:26:50.467Z,0
2017-03-08T05:27:51.126Z,0
2017-03-08T05:28:50.501Z,0
2017-03-08T05:29:50.944Z,0
2017-03-08T05:30:50.569Z,0
2017-03-08T05:31:51.392Z,0
2017-03-08T05:32:51.263Z,0
2017-03-08T05:33:51.020Z,0
2017-03-08T05:34:51.474Z,0
2017-03-08T05:35:50.698Z,0
2017-03-08T05:36:51.507Z,0
2017-03-08T05:37:50.616Z,0
2017-03-08T05:38:50.772Z,0
2017-03-08T05:39:50.787Z,4
2017-03-08T05:40:51.614Z,4
2017-03-08T05:41:51.239Z,0
2017-03-08T05:42:51.518Z,0
2017-03-08T05:43:51.304Z,4
2017-03-08T05:44:51.329Z,4
2017-03-08T05:45:51.346Z,4
2017-03-08T05:46:51.771Z,4
2017-03-08T05:47:51.644Z,8
2017-03-08T05:48:51.829Z,8
2017-03-08T05:49:51.453Z,12
2017-03-08T05:50:51.879Z,12
2017-03-08T05:51:51.519Z,12
2017-03-08T05:52:51.401Z,16
2017-03-08T05:53:50.779Z,16
2017-03-08T05:54:51.588Z,16
2017-03-08T05:55:52.013Z,20
2017-03-08T05:56:52.042Z,24
2017-03-08T05:57:51.918Z,28
2017-03-08T05:58:50.876Z,28
2017-03-08T05:59:51.333Z,28
2017-03-08T06:00:51.350Z,32
2017-03-08T06:01:51.766Z,36
2017-03-08T06:02:52.438Z,40
2017-03-08T06:03:52.211Z,44
2017-03-08T06:04:51.856Z,44
2017-03-08T06:05:51.885Z,48
2017-03-08T06:06:52.309Z,52
2017-03-08T06:07:52.188Z,56
2017-03-08T06:08:51.960Z,64
2017-03-08T06:09:51.588Z,72
2017-03-08T06:10:52.012Z,72
2017-03-08T06:11:51.645Z,80
2017-03-08T06:12:51.917Z,84
2017-03-08T06:13:51.692Z,92
2017-03-08T06:14:51.725Z,96
2017-03-08T06:15:51.344Z,108
2017-03-08T06:16:52.165Z,112
2017-03-08T06:17:52.438Z,124
2017-03-08T06:18:52.230Z,136
2017-03-08T06:19:52.231Z,144
2017-03-08T06:20:52.664Z,148
2017-03-08T06:21:51.895Z,160
2017-03-08T06:22:51.521Z,176
2017-03-08T06:23:52.358Z,184
2017-03-08T06:24:52.776Z,196
2017-03-08T06:25:52.408Z,208
2017-03-08T06:26:52.033Z,216
2017-03-08T06:27:52.862Z,232
2017-03-08T06:28:52.078Z,244
2017-03-08T06:29:52.899Z,256
2017-03-08T06:30:51.748Z,276
2017-03-08T06:31:52.973Z,288
2017-03-08T06:32:52.182Z,304
2017-03-08T06:33:53.271Z,324
2017-03-08T06:34:52.248Z,340
2017-03-08T06:35:53.072Z,364
2017-03-08T06:36:53.081Z,372
2017-03-08T06:37:53.121Z,372
2017-03-08T06:38:52.614Z,380
2017-03-08T06:39:52.779Z,404
2017-03-08T06:40:53.211Z,432
2017-03-08T06:41:52.824Z,452
2017-03-08T06:42:52.444Z,460
2017-03-08T06:43:53.117Z,476
2017-03-08T06:44:52.503Z,496
2017-03-08T06:45:52.560Z,532
2017-03-08T06:46:52.949Z,572
2017-03-08T06:47:53.001Z,624
2017-03-08T06:48:53.266Z,680
2017-03-08T06:49:53.054Z,748
2017-03-08T06:50:52.662Z,760
2017-03-08T06:51:53.094Z,760
2017-03-08T06:52:53.516Z,752
2017-03-08T06:53:53.390Z,764
2017-03-08T06:54:53.186Z,784
2017-03-08T06:55:52.819Z,804
2017-03-08T06:56:53.620Z,816
2017-03-08T06:57:53.240Z,820
2017-03-08T06:58:53.913Z,836
2017-03-08T06:59:53.315Z,852
2017-03-08T07:00:53.331Z,852
2017-03-08T07:01:52.951Z,832
2017-03-08T07:02:53.389Z,800
2017-03-08T07:03:54.057Z,776
2017-03-08T07:04:53.026Z,764
2017-03-08T07:05:53.463Z,768
2017-03-08T07:06:53.882Z,800
2017-03-08T07:07:53.113Z,856
2017-03-08T07:08:53.786Z,868
2017-03-08T07:09:53.961Z,964
2017-03-08T07:10:53.997Z,984
2017-03-08T07:11:53.623Z,1000
2017-03-08T07:12:53.256Z,1016
2017-03-08T07:13:54.304Z,1040
2017-03-08T07:14:54.093Z,1044
2017-03-08T07:15:53.722Z,1040
2017-03-08T07:16:54.180Z,1036
2017-03-08T07:17:54.176Z,1072
2017-03-08T07:18:54.453Z,1076
2017-03-08T07:19:53.826Z,1092
2017-03-08T07:20:53.470Z,1100
2017-03-08T07:21:53.884Z,1112
2017-03-08T07:22:53.508Z,1128
2017-03-08T07:23:53.412Z,1144
2017-03-08T07:24:54.353Z,1148
2017-03-08T07:25:54.026Z,1132
2017-03-08T07:26:54.413Z,1100
2017-03-08T07:27:54.440Z,1076
2017-03-08T07:28:54.328Z,1068
2017-03-08T07:29:54.097Z,1052
2017-03-08T07:30:54.132Z,1040
2017-03-08T07:31:54.146Z,1040
2017-03-08T07:32:54.184Z,1040
2017-03-08T07:33:54.852Z,1048
2017-03-08T07:34:53.433Z,1044
2017-03-08T07:35:54.644Z,1060
2017-03-08T07:36:53.503Z,1084
2017-03-08T07:37:53.526Z,1120
2017-03-08T07:38:54.339Z,1164
2017-03-08T07:39:53.973Z,1212
2017-03-08T07:40:54.393Z,1256
2017-03-08T07:41:53.627Z,1292
2017-03-08T07:42:53.638Z,1292
2017-03-08T07:43:54.464Z,1284
2017-03-08T07:44:54.372Z,1284
2017-03-08T07:45:54.921Z,1296
2017-03-08T07:46:54.942Z,1324
2017-03-08T07:47:54.975Z,1352
2017-03-08T07:48:55.019Z,1392
2017-03-08T07:49:54.896Z,1444
2017-03-08T07:50:54.669Z,1496
2017-03-08T07:51:54.290Z,1536
2017-03-08T07:52:54.308Z,1588
2017-03-08T07:53:55.151Z,1636
2017-03-08T07:54:55.024Z,1684
2017-03-08T07:55:54.785Z,1728
2017-03-08T07:56:54.834Z,1756
2017-03-08T07:57:54.063Z,1772
2017-03-08T07:58:54.862Z,1784
2017-03-08T07:59:55.164Z,1812
2017-03-08T08:00:54.936Z,1836
2017-03-08T08:01:55.342Z,1832
2017-03-08T08:02:54.977Z,1824
2017-03-08T08:03:54.639Z,1828
2017-03-08T08:04:55.271Z,1852
2017-03-08T08:05:54.660Z,1876
2017-03-08T08:06:55.485Z,1904
2017-03-08T08:07:55.118Z,1948
2017-03-08T08:08:54.339Z,1992
2017-03-08T08:09:54.643Z,2048
2017-03-08T08:10:54.836Z,2108
2017-03-08T08:11:55.638Z,2168
2017-03-08T08:12:55.646Z,2228
2017-03-08T08:13:55.278Z,2276
2017-03-08T08:14:55.999Z,2300
2017-03-08T08:15:54.925Z,2272
2017-03-08T08:16:55.360Z,2216
2017-03-08T08:17:55.381Z,2132
2017-03-08T08:18:55.418Z,2040
2017-03-08T08:19:55.686Z,1944
2017-03-08T08:20:55.848Z,1860
2017-03-08T08:21:55.480Z,1796
2017-03-08T08:22:55.496Z,1740
2017-03-08T08:23:55.138Z,1708
2017-03-08T08:24:55.831Z,1680
2017-03-08T08:25:55.599Z,1664
2017-03-08T08:26:55.241Z,1668
2017-03-08T08:27:55.259Z,1676
2017-03-08T08:28:55.668Z,1672
2017-03-08T08:29:55.565Z,1652
2017-03-08T08:30:55.745Z,1632
2017-03-08T08:31:55.755Z,1620
2017-03-08T08:32:55.384Z,1628
2017-03-08T08:33:56.241Z,1648
2017-03-08T08:34:56.081Z,1684
2017-03-08T08:35:55.867Z,1724
2017-03-08T08:36:55.884Z,1756
2017-03-08T08:37:56.324Z,1764
2017-03-08T08:38:55.547Z,1740
2017-03-08T08:39:55.574Z,1720
2017-03-08T08:40:56.390Z,1700
2017-03-08T08:41:55.649Z,1696
2017-03-08T08:42:56.069Z,1708
2017-03-08T08:43:55.684Z,1748
2017-03-08T08:44:55.717Z,1784
2017-03-08T08:45:55.746Z,1792
2017-03-08T08:46:56.551Z,1768
2017-03-08T08:47:56.175Z,1724
2017-03-08T08:48:56.616Z,1688
2017-03-08T08:49:56.230Z,1676
2017-03-08T08:50:56.253Z,1676
2017-03-08T08:51:56.291Z,1696
2017-03-08T08:52:56.322Z,1784
2017-03-08T08:53:56.344Z,1900
2017-03-08T08:54:55.576Z,1996
2017-03-08T08:55:56.642Z,2056
2017-03-08T08:56:56.831Z,2064
2017-03-08T08:57:56.843Z,2080
2017-03-08T08:58:56.079Z,2072
2017-03-08T08:59:56.517Z,2064
2017-03-08T09:00:56.385Z,2088
2017-03-08T09:01:56.155Z,2168
2017-03-08T09:02:56.578Z,2260
2017-03-08T09:03:56.227Z,2328
2017-03-08T09:04:57.027Z,2364
2017-03-08T09:05:56.518Z,2380
2017-03-08T09:06:56.294Z,2428
2017-03-08T09:07:57.122Z,2516
2017-03-08T09:08:56.739Z,2600
2017-03-08T09:09:56.372Z,2708
2017-03-08T09:10:56.677Z,2832
2017-03-08T09:11:56.466Z,2908
2017-03-08T09:12:56.458Z,2960
2017-03-08T09:13:56.089Z,2988
2017-03-08T09:14:56.903Z,2996
2017-03-08T09:15:56.796Z,3056
2017-03-08T09:16:56.982Z,3124
2017-03-08T09:17:56.994Z,3164
2017-03-08T09:18:57.403Z,3208
2017-03-08T09:19:57.451Z,3288
2017-03-08T09:20:56.924Z,3396
2017-03-08T09:21:57.100Z,3536
2017-03-08T09:22:57.509Z,3684
2017-03-08T09:23:57.560Z,3820
2017-03-08T09:24:56.381Z,3916
2017-03-08T09:25:57.064Z,3668
2017-03-08T09:26:57.628Z,2896
2017-03-08T09:27:57.665Z,2340
2017-03-08T09:28:57.690Z,2032
2017-03-08T09:29:57.302Z,1836
2017-03-08T09:30:57.583Z,1784
2017-03-08T09:31:57.772Z,1900
2017-03-08T09:32:57.401Z,2072
2017-03-08T09:33:57.013Z,2204
2017-03-08T09:34:57.046Z,2292
2017-03-08T09:35:57.723Z,2356
2017-03-08T09:36:57.528Z,2404
2017-03-08T09:37:57.116Z,2456
2017-03-08T09:38:57.556Z,2508
2017-03-08T09:39:56.778Z,2540
2017-03-08T09:40:57.863Z,2512
2017-03-08T09:41:58.019Z,2504
2017-03-08T09:42:57.678Z,2532
2017-03-08T09:43:57.681Z,2568
2017-03-08T09:44:57.313Z,2548
2017-03-08T09:45:57.978Z,2548
2017-03-08T09:46:57.779Z,2572
2017-03-08T09:47:57.411Z,2532
2017-03-08T09:48:57.416Z,2432
2017-03-08T09:49:57.470Z,2372
2017-03-08T09:50:58.118Z,2480
2017-03-08T09:51:57.915Z,2720
2017-03-08T09:52:57.926Z,3028
2017-03-08T09:53:58.340Z,3212
2017-03-08T09:54:57.977Z,3264
2017-03-08T09:55:58.670Z,3248
2017-03-08T09:56:58.422Z,3300
2017-03-08T09:57:58.059Z,3456
2017-03-08T09:58:58.096Z,3656
2017-03-08T09:59:58.121Z,3784
2017-03-08T10:00:58.006Z,3848
2017-03-08T10:01:58.161Z,3884
2017-03-08T10:02:57.810Z,3992
2017-03-08T10:03:58.608Z,3884
2017-03-08T10:04:58.262Z,3708
2017-03-08T10:05:58.925Z,3340
2017-03-08T10:06:58.308Z,3204
2017-03-08T10:07:58.327Z,2876
2017-03-08T10:08:58.367Z,2924
2017-03-08T10:09:58.376Z,3000
2017-03-08T10:10:58.258Z,2996
2017-03-08T10:11:58.466Z,2872
2017-03-08T10:12:57.691Z,2928
2017-03-08T10:13:58.095Z,2652
2017-03-08T10:14:58.512Z,2452
2017-03-08T10:15:59.212Z,2600
2017-03-08T10:16:57.781Z,2660
2017-03-08T10:17:59.005Z,2632
2017-03-08T10:18:58.618Z,2656
2017-03-08T10:19:57.868Z,2632
2017-03-08T10:20:58.936Z,2464
2017-03-08T10:21:58.305Z,2456
2017-03-08T10:22:58.729Z,2536
2017-03-08T10:23:58.747Z,2644
2017-03-08T10:24:58.383Z,2776
2017-03-08T10:25:59.051Z,2784
2017-03-08T10:26:58.841Z,2744
2017-03-08T10:27:58.862Z,2656
2017-03-08T10:28:58.111Z,2556
2017-03-08T10:29:58.910Z,2372
2017-03-08T10:30:59.591Z,2588
2017-03-08T10:31:58.993Z,2552
2017-03-08T10:32:59.018Z,2360
2017-03-08T10:33:58.622Z,2624
2017-03-08T10:34:59.463Z,2260
2017-03-08T10:35:59.723Z,2376
2017-03-08T10:36:59.508Z,2420
2017-03-08T10:37:59.533Z,2224
2017-03-08T10:38:59.566Z,2204
2017-03-08T10:39:59.187Z,1924
2017-03-08T10:40:59.459Z,1968
2017-03-08T10:41:58.836Z,1748
2017-03-08T10:42:59.677Z,1788
2017-03-08T10:43:58.902Z,1760
2017-03-08T10:44:58.930Z,1692
2017-03-08T10:45:59.195Z,1640
2017-03-08T10:46:59.377Z,1708
2017-03-08T10:47:59.792Z,1852
2017-03-08T10:48:59.845Z,1824
2017-03-08T10:49:59.462Z,1772
2017-03-08T10:50:59.743Z,1700
2017-03-08T10:51:59.135Z,1648
2017-03-08T10:52:59.148Z,1696
2017-03-08T10:53:59.961Z,1792
2017-03-08T10:54:59.589Z,1800
2017-03-08T10:55:59.627Z,1908
2017-03-08T10:56:59.643Z,1912
2017-03-08T10:57:59.667Z,1952
2017-03-08T10:59:00.097Z,1996
2017-03-08T10:59:59.721Z,2016
2017-03-08T11:00:59.756Z,1984
2017-03-08T11:02:00.174Z,2024
2017-03-08T11:02:59.444Z,2068
2017-03-08T11:03:59.833Z,2072
2017-03-08T11:04:59.057Z,2120
2017-03-08T11:05:59.878Z,2240
2017-03-08T11:06:59.119Z,2336
2017-03-08T11:07:59.937Z,2308
2017-03-08T11:09:00.377Z,2328
2017-03-08T11:10:00.397Z,2376
2017-03-08T11:10:59.622Z,2416
2017-03-08T11:12:00.056Z,2484
2017-03-08T11:12:59.291Z,2404
2017-03-08T11:13:59.304Z,2288
2017-03-08T11:15:00.149Z,2232
2017-03-08T11:15:59.761Z,2180
2017-03-08T11:17:00.178Z,2056
2017-03-08T11:17:59.403Z,2040
2017-03-08T11:19:00.584Z,1992
2017-03-08T11:20:00.647Z,1992
2017-03-08T11:21:00.280Z,1960
2017-03-08T11:21:59.918Z,1936
2017-03-08T11:23:00.331Z,1932
2017-03-08T11:23:59.983Z,1788
2017-03-08T11:25:00.388Z,1784
2017-03-08T11:26:00.033Z,1752
2017-03-08T11:27:00.315Z,1780
2017-03-08T11:28:00.482Z,1680
2017-03-08T11:29:00.098Z,1532
2017-03-08T11:30:00.541Z,1536
2017-03-08T11:31:00.563Z,1528
2017-03-08T11:32:01.225Z,1384
2017-03-08T11:32:59.818Z,1372
2017-03-08T11:34:00.623Z,1356
2017-03-08T11:35:01.056Z,1540
2017-03-08T11:36:00.311Z,1380
2017-03-08T11:37:01.357Z,1500
2017-03-08T11:38:00.354Z,1324
2017-03-08T11:39:00.387Z,1148
2017-03-08T11:40:01.219Z,1144
2017-03-08T11:41:00.819Z,1212
2017-03-08T11:42:01.099Z,1160
2017-03-08T11:43:01.277Z,1264
2017-03-08T11:44:01.285Z,1320
2017-03-08T11:45:00.927Z,1332
2017-03-08T11:46:00.953Z,1268
2017-03-08T11:47:01.644Z,1304
2017-03-08T11:48:01.001Z,1464
2017-03-08T11:49:01.033Z,1564
2017-03-08T11:50:00.675Z,1668
2017-03-08T11:51:00.687Z,1604
2017-03-08T11:52:01.771Z,1620
2017-03-08T11:53:01.537Z,1420
2017-03-08T11:54:00.765Z,1312
2017-03-08T11:55:01.598Z,1360
2017-03-08T11:56:01.615Z,1324
2017-03-08T11:57:01.110Z,1384
2017-03-08T11:58:01.676Z,1316
2017-03-08T11:59:01.709Z,1068
2017-03-08T12:00:01.738Z,1176
2017-03-08T12:01:01.350Z,1288
2017-03-08T12:02:01.638Z,1156
2017-03-08T12:03:01.808Z,1484
2017-03-08T12:04:01.029Z,1332
2017-03-08T12:05:01.468Z,1376
2017-03-08T12:06:01.119Z,1188
2017-03-08T12:07:02.149Z,1356
2017-03-08T12:08:01.548Z,1484
2017-03-08T12:09:01.968Z,1384
2017-03-08T12:10:01.998Z,1240
2017-03-08T12:11:01.214Z,1196
2017-03-08T12:12:01.899Z,1392
2017-03-08T12:13:01.280Z,1120
2017-03-08T12:14:02.105Z,1188
2017-03-08T12:15:01.333Z,1468
2017-03-08T12:16:01.415Z,1136
2017-03-08T12:17:01.637Z,1292
2017-03-08T12:18:01.412Z,1284
2017-03-08T12:19:01.429Z,1300
2017-03-08T12:20:02.252Z,984
2017-03-08T12:21:01.894Z,1180
2017-03-08T12:22:02.212Z,1320
2017-03-08T12:23:01.175Z,1124
2017-03-08T12:24:01.564Z,1180
2017-03-08T12:25:02.005Z,1480
2017-03-08T12:26:01.617Z,1244
2017-03-08T12:27:01.907Z,1208
2017-03-08T12:28:02.091Z,1144
2017-03-08T12:29:02.496Z,1220
2017-03-08T12:30:02.533Z,1232
2017-03-08T12:31:02.585Z,1120
2017-03-08T12:32:02.470Z,1412
2017-03-08T12:33:01.398Z,1336
2017-03-08T12:34:02.227Z,1280
2017-03-08T12:35:01.852Z,1448
2017-03-08T12:36:01.509Z,1156
2017-03-08T12:37:02.554Z,1088
2017-03-08T12:38:02.342Z,1192
2017-03-08T12:39:02.371Z,1148
2017-03-08T12:40:02.039Z,1044
2017-03-08T12:41:02.816Z,1192
2017-03-08T12:42:03.085Z,1228
2017-03-08T12:43:02.491Z,1332
2017-03-08T12:44:02.515Z,1144
2017-03-08T12:45:02.914Z,1272
2017-03-08T12:46:02.157Z,1332
2017-03-08T12:47:02.841Z,1424
2017-03-08T12:48:02.222Z,1372
2017-03-08T12:49:02.647Z,1224
2017-03-08T12:50:03.055Z,1172
2017-03-08T12:51:02.688Z,908
2017-03-08T12:52:02.969Z,1144
2017-03-08T12:53:02.341Z,1244
2017-03-08T12:54:02.362Z,1228
2017-03-08T12:55:02.407Z,1184
2017-03-08T12:56:02.868Z,1076
2017-03-08T12:57:03.092Z,1048
2017-03-08T12:58:02.505Z,972
2017-03-08T12:59:03.298Z,1048
2017-03-08T13:00:03.326Z,1012
2017-03-08T13:01:02.172Z,976
2017-03-08T13:02:03.611Z,1000
2017-03-08T13:03:03.394Z,1104
2017-03-08T13:04:03.029Z,1008
2017-03-08T13:05:02.678Z,1004
2017-03-08T13:06:03.087Z,848
2017-03-08T13:07:03.367Z,988
2017-03-08T13:08:02.749Z,892
2017-03-08T13:09:03.180Z,1140
2017-03-08T13:10:02.396Z,1032
2017-03-08T13:11:03.651Z,1112
2017-03-08T13:12:03.499Z,1024
2017-03-08T13:13:03.284Z,932
2017-03-08T13:14:03.308Z,964
2017-03-08T13:15:03.340Z,1092
2017-03-08T13:16:02.948Z,1052
2017-03-08T13:17:03.232Z,1236
2017-03-08T13:18:03.393Z,980
2017-03-08T13:19:03.027Z,1256
2017-03-08T13:20:03.065Z,1288
2017-03-08T13:21:03.886Z,1304
2017-03-08T13:22:04.143Z,1056
2017-03-08T13:23:03.936Z,1160
2017-03-08T13:24:03.957Z,1064
2017-03-08T13:25:03.590Z,860
2017-03-08T13:26:03.610Z,872
2017-03-08T13:27:04.343Z,984
2017-03-08T13:28:03.667Z,936
2017-03-08T13:29:04.098Z,1108
2017-03-08T13:30:03.725Z,892
2017-03-08T13:31:03.370Z,972
2017-03-08T13:32:03.226Z,924
2017-03-08T13:33:03.786Z,1020
2017-03-08T13:34:03.865Z,1208
2017-03-08T13:35:03.441Z,1200
2017-03-08T13:36:04.262Z,956
2017-03-08T13:37:03.778Z,836
2017-03-08T13:38:03.936Z,820
2017-03-08T13:39:03.951Z,844
2017-03-08T13:40:04.377Z,796
2017-03-08T13:41:04.400Z,776
2017-03-08T13:42:04.663Z,612
2017-03-08T13:43:03.657Z,580
2017-03-08T13:44:04.485Z,632
2017-03-08T13:45:04.529Z,824
2017-03-08T13:46:04.130Z,876
2017-03-08T13:47:04.801Z,964
2017-03-08T13:48:04.580Z,1040
2017-03-08T13:49:04.201Z,1164
2017-03-08T13:50:03.833Z,1100
2017-03-08T13:51:04.662Z,912
2017-03-08T13:52:04.692Z,840
2017-03-08T13:53:04.360Z,1056
2017-03-08T13:54:03.985Z,976
2017-03-08T13:55:04.777Z,1004
2017-03-08T13:56:04.798Z,1136
2017-03-08T13:57:04.831Z,1096
2017-03-08T13:58:04.484Z,968
2017-03-08T13:59:04.501Z,932